Time;durP1;ratioP1;P1;durP2;ratioP2;P2;SDS_P1;SDS_P2;PMS_P1;PMS_P2;Temp;Humidity;BMP_temperature;BMP_pressure;BME280_temperature;BME280_humidity;BME280_pressure;Samples;Min_cycle;Max_cycle;Signal;HPM_P1;HPM_P2
2024/03/29 00:00:03;;;;;;;;;;;23.30;38.60;;;;;;5072184;28;19932;-57
2024/03/29 00:02:28;;;;;;;;;;;23.30;39.20;;;;;;5073938;28;19993;-57
2024/03/29 00:04:54;;;;;;;;;;;23.30;38.60;;;;;;5074334;28;19925;-58
2024/03/29 00:07:20;;;;;;;;;;;23.20;38.60;;;;;;5074038;28;19928;-57
2024/03/29 00:09:46;;;;;;;;;;;23.30;38.70;;;;;;5073593;28;20281;-57
2024/03/29 00:12:12;;;;;;;;;;;23.20;38.60;;;;;;5073727;28;19924;-57
2024/03/29 00:14:39;;;;;;;;;;;23.20;38.60;;;;;;5073758;28;19925;-57
2024/03/29 00:17:05;;;;;;;;;;;23.20;38.70;;;;;;5073639;28;19924;-57
2024/03/29 00:19:32;;;;;;;;;;;23.20;38.70;;;;;;5073346;28;20025;-57
2024/03/29 00:21:57;;;;;;;;;;;23.20;38.70;;;;;;5056743;28;19932;-58
2024/03/29 00:24:23;;;;;;;;;;;23.20;38.70;;;;;;5073887;28;19933;-57
2024/03/29 00:26:49;;;;;;;;;;;23.20;38.80;;;;;;5073529;28;19925;-57
2024/03/29 00:29:15;;;;;;;;;;;23.20;38.80;;;;;;5056529;28;19974;-57
2024/03/29 00:31:41;;;;;;;;;;;23.10;38.80;;;;;;5073596;28;20023;-57
2024/03/29 00:34:07;;;;;;;;;;;23.20;38.90;;;;;;5073140;28;20274;-57
2024/03/29 00:36:33;;;;;;;;;;;23.10;38.80;;;;;;5073123;28;19924;-57
2024/03/29 00:38:59;;;;;;;;;;;23.10;38.90;;;;;;5073407;28;19924;-57
2024/03/29 00:41:24;;;;;;;;;;;23.10;38.90;;;;;;5056324;28;19947;-57
2024/03/29 00:43:51;;;;;;;;;;;23.10;38.90;;;;;;5072746;28;19980;-57
2024/03/29 00:46:17;;;;;;;;;;;23.10;38.90;;;;;;5072738;28;19928;-57
2024/03/29 00:48:45;;;;;;;;;;;23.10;38.90;;;;;;5056338;28;20430;-57
2024/03/29 00:51:10;;;;;;;;;;;23.10;38.90;;;;;;5073213;28;19925;-58
2024/03/29 00:53:36;;;;;;;;;;;23.10;38.90;;;;;;5056534;28;19958;-57
2024/03/29 00:56:02;;;;;;;;;;;23.10;38.90;;;;;;5072522;28;20381;-57
2024/03/29 00:58:28;;;;;;;;;;;23.10;38.90;;;;;;5073067;28;19971;-57
2024/03/29 01:00:54;;;;;;;;;;;23.10;38.90;;;;;;5072664;28;19970;-57
2024/03/29 01:03:20;;;;;;;;;;;23.10;38.90;;;;;;5072490;28;19932;-57
2024/03/29 01:05:46;;;;;;;;;;;23.10;38.90;;;;;;5072426;28;19980;-57
2024/03/29 01:08:12;;;;;;;;;;;23.10;38.90;;;;;;5072720;28;19970;-57
2024/03/29 01:10:38;;;;;;;;;;;23.10;38.90;;;;;;5072432;28;19974;-57
2024/03/29 01:13:03;;;;;;;;;;;23.10;38.90;;;;;;5072460;28;19925;-57
2024/03/29 01:15:29;;;;;;;;;;;23.10;38.90;;;;;;5072250;28;20002;-57
2024/03/29 01:17:55;;;;;;;;;;;23.10;38.90;;;;;;5072238;28;19931;-57
2024/03/29 01:20:21;;;;;;;;;;;23.10;38.80;;;;;;5070556;28;19925;-57
2024/03/29 01:22:47;;;;;;;;;;;23.10;38.90;;;;;;5072164;28;20332;-57
2024/03/29 01:25:14;;;;;;;;;;;23.10;38.90;;;;;;5072541;28;19971;-57
2024/03/29 01:27:40;;;;;;;;;;;23.10;38.90;;;;;;5072563;28;19982;-57
2024/03/29 01:30:06;;;;;;;;;;;23.10;38.90;;;;;;5072113;28;19925;-57
2024/03/29 01:32:32;;;;;;;;;;;23.10;38.90;;;;;;5072264;28;19925;-57
2024/03/29 01:34:58;;;;;;;;;;;23.10;38.90;;;;;;5072427;28;20019;-57
2024/03/29 01:37:23;;;;;;;;;;;23.10;39.00;;;;;;5055364;28;20353;-57
2024/03/29 01:39:49;;;;;;;;;;;23.00;38.90;;;;;;5071869;28;20161;-57
2024/03/29 01:42:15;;;;;;;;;;;23.00;39.00;;;;;;5072189;28;19929;-57
2024/03/29 01:44:41;;;;;;;;;;;23.00;39.00;;;;;;5072109;28;20366;-57
2024/03/29 01:47:07;;;;;;;;;;;23.00;39.00;;;;;;5071960;28;19928;-57
2024/03/29 01:49:33;;;;;;;;;;;23.00;39.00;;;;;;5071728;28;19925;-57
2024/03/29 01:51:59;;;;;;;;;;;23.00;39.00;;;;;;5072269;28;19924;-57
2024/03/29 01:54:25;;;;;;;;;;;23.00;39.10;;;;;;5071928;28;19925;-57
2024/03/29 01:56:51;;;;;;;;;;;23.00;39.10;;;;;;5071769;28;19931;-57
2024/03/29 01:59:18;;;;;;;;;;;23.00;39.10;;;;;;5072143;28;19924;-57
2024/03/29 02:01:45;;;;;;;;;;;23.00;39.10;;;;;;5071614;28;19935;-56
2024/03/29 02:04:11;;;;;;;;;;;22.90;39.10;;;;;;5071749;28;19924;-57
2024/03/29 02:06:38;;;;;;;;;;;23.00;39.10;;;;;;5071932;28;19981;-57
2024/03/29 02:09:04;;;;;;;;;;;22.90;39.10;;;;;;5071720;28;19925;-57
2024/03/29 02:11:29;;;;;;;;;;;23.00;39.10;;;;;;5071666;28;19928;-57
2024/03/29 02:13:55;;;;;;;;;;;23.00;39.10;;;;;;5071846;28;19924;-57
2024/03/29 02:16:21;;;;;;;;;;;23.00;39.10;;;;;;5071500;28;19924;-57
2024/03/29 02:18:47;;;;;;;;;;;23.00;39.10;;;;;;5072107;28;20009;-57
2024/03/29 02:21:13;;;;;;;;;;;22.90;39.00;;;;;;5071583;28;20285;-57
2024/03/29 02:23:42;;;;;;;;;;;23.00;39.10;;;;;;5071394;28;19928;-57
2024/03/29 02:26:08;;;;;;;;;;;22.90;39.00;;;;;;5071489;28;19978;-57
2024/03/29 02:28:34;;;;;;;;;;;23.00;39.10;;;;;;5071886;28;19924;-57
2024/03/29 02:31:00;;;;;;;;;;;23.00;39.10;;;;;;5071512;28;20435;-57
2024/03/29 02:33:26;;;;;;;;;;;23.00;39.10;;;;;;5071830;28;19931;-57
2024/03/29 02:35:51;;;;;;;;;;;22.90;39.10;;;;;;5054844;28;19947;-57
2024/03/29 02:38:17;;;;;;;;;;;22.90;39.10;;;;;;5071433;28;19931;-57
2024/03/29 02:40:43;;;;;;;;;;;22.90;39.10;;;;;;5071510;28;20015;-57
2024/03/29 02:43:09;;;;;;;;;;;22.90;39.10;;;;;;5071733;28;19924;-57
2024/03/29 02:45:36;;;;;;;;;;;22.90;39.10;;;;;;5071167;28;20013;-56
2024/03/29 02:48:02;;;;;;;;;;;22.90;39.10;;;;;;5071628;28;19924;-57
2024/03/29 02:50:27;;;;;;;;;;;22.90;39.20;;;;;;5055018;28;19959;-57
2024/03/29 02:52:53;;;;;;;;;;;22.90;39.20;;;;;;5071575;28;20374;-58
2024/03/29 02:55:19;;;;;;;;;;;22.90;38.80;;;;;;5071434;28;20366;-57
2024/03/29 02:57:45;;;;;;;;;;;22.80;39.20;;;;;;5071261;28;20370;-57
2024/03/29 03:00:11;;;;;;;;;;;22.80;39.20;;;;;;5071080;28;19931;-57
2024/03/29 03:02:38;;;;;;;;;;;22.90;39.30;;;;;;5071352;28;19924;-57
2024/03/29 03:05:05;;;;;;;;;;;22.80;39.30;;;;;;5071515;28;20328;-57
2024/03/29 03:13:03;;;;;;;;;;;22.90;39.40;;;;;;5074803;28;20332;-57
2024/03/29 03:15:29;;;;;;;;;;;22.80;39.30;;;;;;5074923;28;19924;-57
2024/03/29 03:17:55;;;;;;;;;;;22.80;39.30;;;;;;5074677;28;20024;-57
2024/03/29 03:20:22;;;;;;;;;;;22.80;39.30;;;;;;5074778;28;19994;-57
2024/03/29 03:22:50;;;;;;;;;;;22.80;39.30;;;;;;5074525;28;19924;-57
2024/03/29 03:25:16;;;;;;;;;;;22.80;39.30;;;;;;5074437;28;20389;-56
2024/03/29 03:27:44;;;;;;;;;;;22.80;39.30;;;;;;5073786;28;20161;-57
2024/03/29 03:30:10;;;;;;;;;;;22.80;39.20;;;;;;5058120;28;19928;-57
2024/03/29 03:32:36;;;;;;;;;;;22.80;39.20;;;;;;5074514;28;20366;-57
2024/03/29 03:35:02;;;;;;;;;;;22.80;39.20;;;;;;5074647;28;19976;-57
2024/03/29 03:37:28;;;;;;;;;;;22.80;39.30;;;;;;5074693;28;19947;-57
2024/03/29 03:39:54;;;;;;;;;;;22.80;39.20;;;;;;5074576;28;19924;-57
2024/03/29 03:42:19;;;;;;;;;;;22.80;39.30;;;;;;5057883;28;19933;-57
2024/03/29 03:44:45;;;;;;;;;;;22.80;39.30;;;;;;5074170;28;19936;-57
2024/03/29 03:47:11;;;;;;;;;;;22.80;39.30;;;;;;5074219;28;19924;-57
2024/03/29 03:49:37;;;;;;;;;;;22.80;39.30;;;;;;5073981;28;19936;-57
2024/03/29 03:52:03;;;;;;;;;;;22.80;39.30;;;;;;5074346;28;19924;-57
2024/03/29 03:54:29;;;;;;;;;;;22.80;39.40;;;;;;5074462;28;19924;-57
2024/03/29 03:56:55;;;;;;;;;;;22.70;39.30;;;;;;5074152;28;19959;-57
2024/03/29 03:59:21;;;;;;;;;;;22.70;39.40;;;;;;5073775;28;20380;-57
2024/03/29 04:01:47;;;;;;;;;;;22.70;39.40;;;;;;5073824;28;19974;-57
2024/03/29 04:04:13;;;;;;;;;;;22.70;39.40;;;;;;5073718;28;19925;-57
2024/03/29 04:06:38;;;;;;;;;;;22.70;39.40;;;;;;5073688;28;19924;-57
2024/03/29 04:09:04;;;;;;;;;;;22.70;39.40;;;;;;5073927;28;19924;-57
2024/03/29 04:11:32;;;;;;;;;;;22.70;39.50;;;;;;5073788;28;19928;-56
2024/03/29 04:13:58;;;;;;;;;;;22.70;39.50;;;;;;5073973;28;19954;-57
2024/03/29 04:16:24;;;;;;;;;;;22.70;39.50;;;;;;5073610;28;19925;-57
2024/03/29 04:18:50;;;;;;;;;;;22.70;39.50;;;;;;5073900;28;20032;-57
2024/03/29 04:21:16;;;;;;;;;;;22.70;39.50;;;;;;5072390;28;19925;-57
2024/03/29 04:23:42;;;;;;;;;;;22.70;39.50;;;;;;5073256;28;19924;-57
2024/03/29 04:26:07;;;;;;;;;;;22.70;39.50;;;;;;5073299;28;19924;-57
2024/03/29 04:28:33;;;;;;;;;;;22.70;39.50;;;;;;5073802;28;20029;-57
2024/03/29 04:31:00;;;;;;;;;;;22.70;39.50;;;;;;5073458;28;20413;-60
2024/03/29 04:33:26;;;;;;;;;;;22.70;39.50;;;;;;5056794;28;20255;-57
2024/03/29 04:36:00;;;;;;;;;;;22.70;39.50;;;;;;5073249;28;19924;-64
2024/03/29 04:38:26;;;;;;;;;;;22.70;39.50;;;;;;5073619;28;19931;-59
2024/03/29 04:40:53;;;;;;;;;;;22.70;39.20;;;;;;5073301;28;19924;-57
2024/03/29 04:43:21;;;;;;;;;;;22.70;39.00;;;;;;5073220;28;19948;-57
2024/03/29 04:45:47;;;;;;;;;;;22.80;38.80;;;;;;5073293;28;19947;-58
2024/03/29 04:48:13;;;;;;;;;;;22.80;38.70;;;;;;5073164;28;19925;-57
2024/03/29 04:50:39;;;;;;;;;;;22.80;38.60;;;;;;5072817;28;19925;-58
2024/03/29 04:53:05;;;;;;;;;;;22.90;38.50;;;;;;5056587;28;19925;-58
2024/03/29 04:55:31;;;;;;;;;;;22.90;38.40;;;;;;5073060;28;19974;-59
2024/03/29 04:57:57;;;;;;;;;;;22.90;38.40;;;;;;5072678;28;20358;-60
2024/03/29 05:00:23;;;;;;;;;;;22.90;38.30;;;;;;5072771;28;19924;-63
2024/03/29 05:02:49;;;;;;;;;;;22.80;38.30;;;;;;5072714;28;19924;-57
2024/03/29 05:05:15;;;;;;;;;;;22.80;38.20;;;;;;5073041;28;20015;-57
2024/03/29 05:07:40;;;;;;;;;;;22.90;38.20;;;;;;5072919;28;20277;-57
2024/03/29 05:10:07;;;;;;;;;;;22.90;38.10;;;;;;5072841;28;19989;-57
2024/03/29 05:12:33;;;;;;;;;;;22.90;38.10;;;;;;5072864;28;19924;-57
2024/03/29 05:14:59;;;;;;;;;;;22.90;38.00;;;;;;5056248;28;20267;-57
2024/03/29 05:17:26;;;;;;;;;;;22.90;37.90;;;;;;5072738;28;20263;-58
2024/03/29 05:19:53;;;;;;;;;;;23.00;37.90;;;;;;5072290;28;19928;-57
2024/03/29 05:22:19;;;;;;;;;;;23.00;37.90;;;;;;5072249;28;19931;-57
2024/03/29 05:24:45;;;;;;;;;;;23.00;37.80;;;;;;5072169;28;19925;-57
2024/03/29 05:27:11;;;;;;;;;;;23.00;37.70;;;;;;5072694;28;19998;-58
2024/03/29 05:29:37;;;;;;;;;;;23.00;37.70;;;;;;5072142;28;19974;-57
2024/03/29 05:32:04;;;;;;;;;;;23.00;37.70;;;;;;5072082;28;19947;-57
2024/03/29 05:34:30;;;;;;;;;;;23.00;37.70;;;;;;5055692;28;19928;-57
2024/03/29 05:36:56;;;;;;;;;;;23.00;37.70;;;;;;5055673;28;19931;-57
2024/03/29 05:39:22;;;;;;;;;;;23.00;37.70;;;;;;5072053;28;20369;-58
2024/03/29 05:41:47;;;;;;;;;;;23.00;37.60;;;;;;5072173;28;19977;-58
2024/03/29 05:44:13;;;;;;;;;;;23.10;37.70;;;;;;5072015;28;20491;-58
2024/03/29 05:46:40;;;;;;;;;;;23.10;37.70;;;;;;5072464;28;19924;-57
2024/03/29 05:49:06;;;;;;;;;;;23.10;37.60;;;;;;5072342;28;19951;-58
2024/03/29 05:51:33;;;;;;;;;;;23.10;37.60;;;;;;5072164;28;19924;-57
2024/03/29 05:54:00;;;;;;;;;;;23.10;37.60;;;;;;5071884;28;19931;-57
2024/03/29 05:56:26;;;;;;;;;;;23.10;37.60;;;;;;5071685;28;20411;-57
2024/03/29 05:58:52;;;;;;;;;;;23.10;37.50;;;;;;5071918;28;19929;-58
2024/03/29 06:01:18;;;;;;;;;;;23.20;37.50;;;;;;5071880;28;19925;-57
2024/03/29 06:03:44;;;;;;;;;;;23.20;37.40;;;;;;5071772;28;19929;-57
2024/03/29 06:06:17;;;;;;;;;;;23.30;37.40;;;;;;5071968;28;19935;-58
2024/03/29 06:08:46;;;;;;;;;;;23.30;37.40;;;;;;5071955;28;20385;-57
2024/03/29 06:11:11;;;;;;;;;;;23.30;37.30;;;;;;5071809;28;19928;-57
2024/03/29 06:19:15;;;;;;;;;;;23.40;37.20;;;;;;5071963;28;19991;-57
2024/03/29 06:21:42;;;;;;;;;;;23.50;37.20;;;;;;5071471;28;19928;-58
2024/03/29 06:24:12;;;;;;;;;;;23.50;37.70;;;;;;5071763;28;19924;-57
2024/03/29 06:26:38;;;;;;;;;;;23.60;37.10;;;;;;5071949;28;19932;-57
2024/03/29 06:29:04;;;;;;;;;;;23.60;37.10;;;;;;5071753;28;19924;-57
2024/03/29 06:31:30;;;;;;;;;;;23.60;37.00;;;;;;5071825;28;20027;-58
2024/03/29 06:33:57;;;;;;;;;;;23.70;37.00;;;;;;5071535;28;20401;-57
2024/03/29 06:36:25;;;;;;;;;;;23.70;37.00;;;;;;5071349;28;19929;-57
2024/03/29 06:38:51;;;;;;;;;;;23.70;37.00;;;;;;5071596;28;20443;-58
2024/03/29 06:41:17;;;;;;;;;;;23.70;36.90;;;;;;5071392;28;19970;-57
2024/03/29 06:43:44;;;;;;;;;;;23.70;36.90;;;;;;5072160;28;19928;-58
2024/03/29 06:46:10;;;;;;;;;;;23.70;36.80;;;;;;5075519;28;20017;-57
2024/03/29 06:48:36;;;;;;;;;;;23.80;36.80;;;;;;5075651;28;19924;-57
2024/03/29 06:51:02;;;;;;;;;;;23.90;36.80;;;;;;5075510;28;20380;-58
2024/03/29 06:53:28;;;;;;;;;;;23.90;36.70;;;;;;5075425;28;20262;-57
2024/03/29 06:55:55;;;;;;;;;;;23.90;36.70;;;;;;5075185;28;19932;-57
2024/03/29 06:58:21;;;;;;;;;;;23.90;36.60;;;;;;5075028;28;19986;-57
2024/03/29 07:00:49;;;;;;;;;;;23.90;36.60;;;;;;5071282;28;19925;-57
2024/03/29 07:03:15;;;;;;;;;;;23.90;36.60;;;;;;5055291;28;19932;-57
2024/03/29 07:05:41;;;;;;;;;;;23.90;36.50;;;;;;5054812;28;19925;-58
2024/03/29 07:08:07;;;;;;;;;;;23.90;36.50;;;;;;5055194;28;19974;-57
2024/03/29 07:10:33;;;;;;;;;;;23.90;36.50;;;;;;5055213;28;19924;-57
2024/03/29 07:12:58;;;;;;;;;;;24.00;36.50;;;;;;5054767;28;19951;-57
2024/03/29 07:15:24;;;;;;;;;;;24.00;36.40;;;;;;5054882;28;19924;-57
2024/03/29 07:17:52;;;;;;;;;;;24.00;36.40;;;;;;5054843;28;19990;-58
2024/03/29 07:20:18;;;;;;;;;;;24.10;36.40;;;;;;5054468;28;19929;-57
2024/03/29 07:22:45;;;;;;;;;;;24.10;36.30;;;;;;5054844;28;20023;-57
2024/03/29 07:25:11;;;;;;;;;;;24.10;36.30;;;;;;5054783;28;19928;-58
2024/03/29 07:27:37;;;;;;;;;;;24.20;36.30;;;;;;5061766;28;20297;-57
2024/03/29 07:30:04;;;;;;;;;;;24.20;36.20;;;;;;5074474;28;20465;-57
2024/03/29 07:32:30;;;;;;;;;;;24.20;36.10;;;;;;5074798;28;19963;-57
2024/03/29 07:34:58;;;;;;;;;;;24.30;36.10;;;;;;5074255;28;19970;-57
2024/03/29 07:37:24;;;;;;;;;;;24.30;36.00;;;;;;5074704;28;19924;-58
2024/03/29 07:39:50;;;;;;;;;;;24.40;36.00;;;;;;5074635;28;20035;-57
2024/03/29 07:42:16;;;;;;;;;;;24.40;36.10;;;;;;5074621;28;19928;-57
2024/03/29 07:44:42;;;;;;;;;;;24.40;35.80;;;;;;5074152;28;19971;-57
2024/03/29 07:47:08;;;;;;;;;;;24.50;35.80;;;;;;5074176;28;20373;-57
2024/03/29 07:49:34;;;;;;;;;;;24.50;35.70;;;;;;5074203;28;19924;-57
2024/03/29 07:52:05;;;;;;;;;;;24.50;35.70;;;;;;5073981;28;20420;-57
2024/03/29 07:54:31;;;;;;;;;;;24.60;35.70;;;;;;5074239;28;19928;-58
2024/03/29 07:56:57;;;;;;;;;;;24.60;35.70;;;;;;5073948;28;19925;-57
2024/03/29 07:59:23;;;;;;;;;;;24.70;35.60;;;;;;5074095;28;20013;-57
2024/03/29 08:01:49;;;;;;;;;;;24.70;35.60;;;;;;5073885;28;20393;-58
2024/03/29 08:04:15;;;;;;;;;;;24.70;35.50;;;;;;5073665;28;20399;-58
2024/03/29 08:06:40;;;;;;;;;;;24.70;35.50;;;;;;5074223;28;19975;-57
2024/03/29 08:09:06;;;;;;;;;;;24.70;35.40;;;;;;5074137;28;20390;-57
2024/03/29 08:11:32;;;;;;;;;;;24.80;35.40;;;;;;5073684;28;20289;-57
2024/03/29 08:13:58;;;;;;;;;;;24.80;35.30;;;;;;5073589;28;19928;-57
2024/03/29 08:16:24;;;;;;;;;;;24.90;35.30;;;;;;5073748;28;19932;-57
2024/03/29 08:18:50;;;;;;;;;;;24.90;35.30;;;;;;5073568;28;19936;-57
2024/03/29 08:21:16;;;;;;;;;;;24.90;35.30;;;;;;5073474;28;19925;-57
2024/03/29 08:23:46;;;;;;;;;;;24.90;35.20;;;;;;5057105;28;19924;-57
2024/03/29 08:26:12;;;;;;;;;;;25.00;35.20;;;;;;5073283;28;19929;-57
2024/03/29 08:28:38;;;;;;;;;;;25.00;35.10;;;;;;5073398;28;19924;-57
2024/03/29 08:31:05;;;;;;;;;;;25.10;35.10;;;;;;5073561;28;19928;-57
2024/03/29 08:33:32;;;;;;;;;;;25.10;35.00;;;;;;5056565;28;19925;-57
2024/03/29 08:35:57;;;;;;;;;;;25.10;35.00;;;;;;5073197;28;19943;-57
2024/03/29 08:38:23;;;;;;;;;;;25.20;35.00;;;;;;5056652;28;19928;-57
2024/03/29 08:40:49;;;;;;;;;;;25.20;34.90;;;;;;5073067;28;19924;-57
2024/03/29 08:43:17;;;;;;;;;;;25.20;34.80;;;;;;5073486;28;19977;-57
2024/03/29 08:45:44;;;;;;;;;;;25.30;34.80;;;;;;5073243;28;19924;-57
2024/03/29 08:48:10;;;;;;;;;;;25.30;34.80;;;;;;5073064;28;19929;-57
2024/03/29 08:50:36;;;;;;;;;;;25.30;34.70;;;;;;5073101;28;19970;-57
2024/03/29 08:53:03;;;;;;;;;;;25.30;34.60;;;;;;5056410;28;19928;-57
2024/03/29 08:55:30;;;;;;;;;;;25.40;34.70;;;;;;5073140;28;19931;-57
2024/03/29 08:57:59;;;;;;;;;;;25.40;34.70;;;;;;5072740;28;19924;-57
2024/03/29 09:00:25;;;;;;;;;;;25.40;34.70;;;;;;5072841;28;19929;-57
2024/03/29 09:02:51;;;;;;;;;;;25.40;34.70;;;;;;5072526;28;19924;-57
2024/03/29 09:05:17;;;;;;;;;;;25.40;34.70;;;;;;5072689;28;19932;-57
2024/03/29 09:07:43;;;;;;;;;;;25.40;34.70;;;;;;5072121;28;19939;-57
2024/03/29 09:10:09;;;;;;;;;;;25.40;34.70;;;;;;5072611;28;19943;-57
2024/03/29 09:12:35;;;;;;;;;;;25.40;34.80;;;;;;5055827;28;19978;-57
2024/03/29 09:15:01;;;;;;;;;;;25.40;34.80;;;;;;5072332;28;19932;-57
2024/03/29 09:17:27;;;;;;;;;;;25.40;34.80;;;;;;5055742;28;19994;-57
2024/03/29 09:19:53;;;;;;;;;;;25.40;34.80;;;;;;5072268;28;20003;-57
2024/03/29 09:22:19;;;;;;;;;;;25.40;34.80;;;;;;5072291;28;19947;-57
2024/03/29 09:24:45;;;;;;;;;;;25.40;34.80;;;;;;5072135;28;19936;-57
2024/03/29 09:27:11;;;;;;;;;;;25.40;34.80;;;;;;5072589;28;19929;-57
2024/03/29 09:29:37;;;;;;;;;;;25.40;34.80;;;;;;5072393;28;20389;-57
2024/03/29 09:32:03;;;;;;;;;;;25.40;34.70;;;;;;5072193;28;19947;-57
2024/03/29 09:34:28;;;;;;;;;;;25.50;34.80;;;;;;5072435;28;19925;-57
2024/03/29 09:36:54;;;;;;;;;;;25.50;34.70;;;;;;5072076;28;20393;-57
2024/03/29 09:39:20;;;;;;;;;;;25.50;34.70;;;;;;5071881;28;19974;-57
2024/03/29 09:41:46;;;;;;;;;;;25.50;34.60;;;;;;5072027;28;19925;-57
2024/03/29 09:44:12;;;;;;;;;;;25.60;35.20;;;;;;5072364;28;19975;-57
2024/03/29 09:46:39;;;;;;;;;;;25.60;34.60;;;;;;5072095;28;19924;-57
2024/03/29 09:49:06;;;;;;;;;;;25.70;34.60;;;;;;5071996;28;19981;-57
2024/03/29 09:51:34;;;;;;;;;;;25.70;34.50;;;;;;5071986;28;19925;-57
2024/03/29 09:54:00;;;;;;;;;;;25.70;34.40;;;;;;5072149;28;19928;-57
2024/03/29 09:56:26;;;;;;;;;;;25.80;34.50;;;;;;5071844;28;19925;-57
2024/03/29 09:58:53;;;;;;;;;;;25.80;34.50;;;;;;5071579;28;20408;-57
2024/03/29 10:01:19;;;;;;;;;;;25.80;34.50;;;;;;5055010;28;19931;-57
2024/03/29 10:03:48;;;;;;;;;;;25.70;34.50;;;;;;5065028;28;19936;-57
2024/03/29 10:06:14;;;;;;;;;;;25.80;34.60;;;;;;5051849;28;19952;-57
2024/03/29 10:08:40;;;;;;;;;;;25.70;34.60;;;;;;5052184;28;19933;-57
2024/03/29 10:11:06;;;;;;;;;;;25.70;34.60;;;;;;5051928;28;19935;-57
2024/03/29 10:13:34;;;;;;;;;;;25.70;34.70;;;;;;5051611;28;19929;-58
2024/03/29 10:16:02;;;;;;;;;;;25.70;34.70;;;;;;5051464;28;19932;-57
2024/03/29 10:18:30;;;;;;;;;;;25.70;34.70;;;;;;5052062;28;19978;-57
2024/03/29 10:21:00;;;;;;;;;;;25.70;34.80;;;;;;5048003;28;19931;-57
2024/03/29 10:23:26;;;;;;;;;;;25.70;34.80;;;;;;5050140;28;19924;-58
2024/03/29 10:25:52;;;;;;;;;;;25.80;34.80;;;;;;5064121;28;19931;-57
2024/03/29 10:28:19;;;;;;;;;;;25.70;34.70;;;;;;5066652;28;19929;-57
2024/03/29 10:30:45;;;;;;;;;;;25.70;34.70;;;;;;5059856;28;20283;-57
2024/03/29 10:33:11;;;;;;;;;;;25.70;34.80;;;;;;5055870;28;19936;-57
2024/03/29 10:35:37;;;;;;;;;;;25.70;34.80;;;;;;5055720;28;19990;-57
2024/03/29 10:38:04;;;;;;;;;;;25.70;34.80;;;;;;5055545;28;19925;-57
2024/03/29 10:40:30;;;;;;;;;;;25.70;34.80;;;;;;5055727;28;19931;-57
2024/03/29 10:42:56;;;;;;;;;;;25.70;34.90;;;;;;5055286;28;20388;-58
2024/03/29 10:45:22;;;;;;;;;;;25.70;34.90;;;;;;5055392;28;19939;-57
2024/03/29 10:47:49;;;;;;;;;;;25.70;34.90;;;;;;5055577;28;20282;-57
2024/03/29 10:50:16;;;;;;;;;;;25.70;34.90;;;;;;5055251;28;19929;-57
2024/03/29 10:52:43;;;;;;;;;;;25.80;34.90;;;;;;5055600;28;19925;-57
2024/03/29 10:55:09;;;;;;;;;;;25.80;34.90;;;;;;5055718;28;19925;-57
2024/03/29 10:57:39;;;;;;;;;;;25.80;34.90;;;;;;5055250;28;20388;-57
2024/03/29 11:00:18;;;;;;;;;;;25.80;34.90;;;;;;5055024;28;19939;-57
2024/03/29 11:03:04;;;;;;;;;;;25.80;34.90;;;;;;5055415;28;19998;-57
2024/03/29 11:05:30;;;;;;;;;;;25.80;34.90;;;;;;5055220;28;19994;-57
2024/03/29 11:07:57;;;;;;;;;;;25.80;34.90;;;;;;5055251;28;19925;-57
2024/03/29 11:10:30;;;;;;;;;;;25.80;34.90;;;;;;5054982;28;19932;-57
2024/03/29 11:13:09;;;;;;;;;;;25.80;34.90;;;;;;5070472;28;19931;-57
2024/03/29 11:15:37;;;;;;;;;;;25.90;34.90;;;;;;5074739;28;19942;-57
2024/03/29 11:18:04;;;;;;;;;;;25.90;34.90;;;;;;5074704;28;19931;-57
2024/03/29 11:20:37;;;;;;;;;;;26.00;34.90;;;;;;5074579;28;19924;-57
2024/03/29 11:23:06;;;;;;;;;;;26.00;34.80;;;;;;5074451;28;19928;-57
2024/03/29 11:25:43;;;;;;;;;;;26.00;34.70;;;;;;5073807;28;19931;-57
2024/03/29 11:28:13;;;;;;;;;;;26.10;34.70;;;;;;5074861;28;19929;-57
2024/03/29 11:30:40;;;;;;;;;;;26.20;34.70;;;;;;5057792;28;19931;-57
2024/03/29 11:33:06;;;;;;;;;;;26.20;34.70;;;;;;5074731;28;20324;-57
2024/03/29 11:35:33;;;;;;;;;;;26.20;34.60;;;;;;5074564;28;19925;-57
2024/03/29 11:38:01;;;;;;;;;;;26.20;34.50;;;;;;5058095;28;19929;-57
2024/03/29 11:40:30;;;;;;;;;;;26.30;34.60;;;;;;5074406;28;19924;-57
2024/03/29 11:42:56;;;;;;;;;;;26.30;34.60;;;;;;5074605;28;19925;-57
2024/03/29 11:45:28;;;;;;;;;;;26.30;34.60;;;;;;5074525;28;19947;-57
2024/03/29 11:48:00;;;;;;;;;;;26.30;34.60;;;;;;5074501;28;19924;-57
2024/03/29 11:50:26;;;;;;;;;;;26.30;34.70;;;;;;5074232;28;20382;-57
2024/03/29 11:52:52;;;;;;;;;;;26.30;34.70;;;;;;5074159;28;20480;-57
2024/03/29 11:55:18;;;;;;;;;;;26.30;34.70;;;;;;5074241;28;20035;-57
2024/03/29 11:57:44;;;;;;;;;;;26.40;34.70;;;;;;5074352;28;19928;-57
2024/03/29 12:00:11;;;;;;;;;;;26.40;34.60;;;;;;5074108;28;19924;-57
2024/03/29 12:02:36;;;;;;;;;;;26.50;34.60;;;;;;5074345;28;19932;-57
2024/03/29 12:05:09;;;;;;;;;;;26.60;35.10;;;;;;5073889;28;19925;-57
2024/03/29 12:07:35;;;;;;;;;;;26.60;34.50;;;;;;5073749;28;20386;-57
2024/03/29 12:10:01;;;;;;;;;;;26.60;34.40;;;;;;5073902;28;19934;-59
2024/03/29 12:12:29;;;;;;;;;;;26.70;34.40;;;;;;5073855;28;19924;-59
2024/03/29 12:14:55;;;;;;;;;;;26.70;34.40;;;;;;5073930;28;19986;-60
2024/03/29 12:17:20;;;;;;;;;;;26.70;34.40;;;;;;5073813;28;19932;-59
2024/03/29 12:19:48;;;;;;;;;;;26.70;34.30;;;;;;5073999;28;20365;-59
2024/03/29 12:22:14;;;;;;;;;;;26.70;34.40;;;;;;5073489;28;20413;-59
2024/03/29 12:24:40;;;;;;;;;;;26.70;34.40;;;;;;5073858;28;19985;-59
2024/03/29 12:27:06;;;;;;;;;;;26.70;34.40;;;;;;5073837;28;20369;-59
2024/03/29 12:29:32;;;;;;;;;;;26.70;34.40;;;;;;5073476;28;20377;-59
2024/03/29 12:32:01;;;;;;;;;;;26.70;34.50;;;;;;5073669;28;19980;-57
2024/03/29 12:34:27;;;;;;;;;;;26.60;34.50;;;;;;5073436;28;19925;-57
2024/03/29 12:36:52;;;;;;;;;;;26.60;34.60;;;;;;5073443;28;19928;-57
2024/03/29 12:39:19;;;;;;;;;;;26.60;34.60;;;;;;5072918;28;20496;-57
2024/03/29 12:41:48;;;;;;;;;;;26.60;34.70;;;;;;5072413;28;19929;-57
2024/03/29 12:44:14;;;;;;;;;;;26.60;34.80;;;;;;5072484;28;19924;-57
2024/03/29 12:46:40;;;;;;;;;;;26.50;34.80;;;;;;5073419;28;20007;-57
2024/03/29 12:49:06;;;;;;;;;;;26.50;34.80;;;;;;5073097;28;20019;-64
2024/03/29 12:51:35;;;;;;;;;;;26.50;34.90;;;;;;5072634;28;19924;-59
2024/03/29 12:54:03;;;;;;;;;;;26.40;34.90;;;;;;5073263;28;20352;-60
2024/03/29 12:56:30;;;;;;;;;;;26.40;34.90;;;;;;5073206;28;19932;-58
2024/03/29 12:58:56;;;;;;;;;;;26.40;35.00;;;;;;5072870;28;19924;-57
2024/03/29 13:01:22;;;;;;;;;;;26.40;34.90;;;;;;5072882;28;19924;-63
2024/03/29 13:03:48;;;;;;;;;;;26.40;35.00;;;;;;5072838;28;20373;-62
2024/03/29 13:06:14;;;;;;;;;;;26.40;35.00;;;;;;5071605;28;19928;-57
2024/03/29 13:08:40;;;;;;;;;;;26.40;35.10;;;;;;5072779;28;19977;-58
2024/03/29 13:11:06;;;;;;;;;;;26.30;35.10;;;;;;5072742;28;19932;-61
2024/03/29 13:13:31;;;;;;;;;;;26.30;35.20;;;;;;5072921;28;19924;-58
2024/03/29 13:15:57;;;;;;;;;;;26.30;35.30;;;;;;5072526;28;19925;-57
2024/03/29 13:18:23;;;;;;;;;;;26.30;35.30;;;;;;5072911;28;19924;-57
2024/03/29 13:20:49;;;;;;;;;;;26.30;35.30;;;;;;5072107;28;20010;-58
2024/03/29 13:23:16;;;;;;;;;;;26.30;35.30;;;;;;5072348;28;19986;-57
2024/03/29 13:25:42;;;;;;;;;;;26.30;35.80;;;;;;5055726;28;19924;-57
2024/03/29 13:28:09;;;;;;;;;;;26.30;35.20;;;;;;5072372;28;19924;-57
2024/03/29 13:30:42;;;;;;;;;;;26.40;35.30;;;;;;5072081;28;19996;-57
2024/03/29 13:33:09;;;;;;;;;;;26.40;35.20;;;;;;5072540;28;19924;-57
2024/03/29 13:35:36;;;;;;;;;;;26.40;35.20;;;;;;5072452;28;19929;-57
2024/03/29 13:38:02;;;;;;;;;;;26.40;35.20;;;;;;5072362;28;19936;-57
2024/03/29 13:40:29;;;;;;;;;;;26.50;35.20;;;;;;5072059;28;19924;-57
2024/03/29 13:42:55;;;;;;;;;;;26.40;35.20;;;;;;5072028;28;19994;-58
2024/03/29 13:45:20;;;;;;;;;;;26.40;35.20;;;;;;5071997;28;19940;-57
2024/03/29 13:47:47;;;;;;;;;;;26.40;35.20;;;;;;5072231;28;19931;-57
2024/03/29 13:50:15;;;;;;;;;;;26.40;35.20;;;;;;5071976;28;20393;-57
2024/03/29 13:52:41;;;;;;;;;;;26.40;35.20;;;;;;5071774;28;19928;-57
2024/03/29 13:55:07;;;;;;;;;;;26.40;35.30;;;;;;5071883;28;19928;-57
2024/03/29 13:57:33;;;;;;;;;;;26.40;35.30;;;;;;5070291;28;19931;-58
2024/03/29 13:59:59;;;;;;;;;;;26.30;35.30;;;;;;5071829;28;19924;-57
2024/03/29 14:02:28;;;;;;;;;;;26.30;35.40;;;;;;5071789;28;19924;-57
2024/03/29 14:04:55;;;;;;;;;;;26.30;35.40;;;;;;5071730;28;19985;-57
2024/03/29 14:07:24;;;;;;;;;;;26.20;35.50;;;;;;5071849;28;19928;-57
2024/03/29 14:09:51;;;;;;;;;;;26.10;35.50;;;;;;5068612;28;19971;-57
2024/03/29 14:12:18;;;;;;;;;;;26.10;35.60;;;;;;5055469;28;19925;-57
2024/03/29 14:14:48;;;;;;;;;;;26.10;35.60;;;;;;5072154;28;19928;-58
2024/03/29 14:17:14;;;;;;;;;;;26.10;35.70;;;;;;5071673;28;19924;-58
2024/03/29 14:19:40;;;;;;;;;;;26.00;35.70;;;;;;5071496;28;19931;-57
2024/03/29 14:22:06;;;;;;;;;;;26.00;35.80;;;;;;5071603;28;20439;-57